createdAt,value
2022-11-09T00:02:06.205Z,96979.98
2022-11-09T00:12:09.985Z,96982.95
2022-11-09T00:22:13.868Z,96981.55
2022-11-09T00:32:17.824Z,96983.10
2022-11-09T00:42:21.900Z,96979.02
2022-11-09T00:52:27.938Z,96979.57
2022-11-09T01:02:32.000Z,96979.35
2022-11-09T01:12:35.954Z,96979.01
2022-11-09T01:22:39.733Z,96980.52
2022-11-09T01:32:43.720Z,96976.75
2022-11-09T01:42:47.388Z,96973.27
2022-11-09T01:52:52.719Z,96972.33
2022-11-09T02:03:01.073Z,96960.16
2022-11-09T02:13:06.560Z,96960.05
2022-11-09T02:23:14.027Z,96958.20
2022-11-09T02:33:18.715Z,96944.67
2022-11-09T02:43:23.692Z,96936.23
2022-11-09T02:53:27.587Z,96936.38
2022-11-09T03:03:31.737Z,96936.02
2022-11-09T03:13:35.618Z,96939.65
2022-11-09T03:23:40.188Z,96940.66
2022-11-09T03:33:44.378Z,96938.12
2022-11-09T03:43:48.349Z,96939.73
2022-11-09T03:53:52.638Z,96938.08
2022-11-09T04:03:56.696Z,96933.23
2022-11-09T04:14:00.678Z,96928.45
2022-11-09T04:24:05.054Z,96924.86
2022-11-09T04:34:08.921Z,96928.13
2022-11-09T04:44:12.998Z,96931.09
2022-11-09T04:54:16.669Z,96929.84
2022-11-09T05:04:20.600Z,96930.45
2022-11-09T05:14:24.599Z,96912.65
2022-11-09T05:24:28.440Z,96917.49
2022-11-09T05:34:33.379Z,96909.45
2022-11-09T05:44:37.147Z,96908.70
2022-11-09T05:54:41.309Z,96909.43
2022-11-09T06:04:45.396Z,96921.66
2022-11-09T06:14:49.269Z,96915.65
2022-11-09T06:24:53.284Z,96908.13
2022-11-09T06:34:57.000Z,96915.91
2022-11-09T06:45:01.286Z,96914.87
2022-11-09T06:55:06.431Z,96919.83
2022-11-09T07:05:11.561Z,96915.66
2022-11-09T07:15:16.671Z,96914.27
2022-11-09T07:25:20.481Z,96916.02
2022-11-09T07:35:24.643Z,96920.73
2022-11-09T07:45:30.142Z,96926.65
2022-11-09T07:55:35.636Z,96926.19
2022-11-09T08:05:40.674Z,96928.69
2022-11-09T08:15:44.910Z,96924.48
2022-11-09T08:25:51.914Z,96916.78
2022-11-09T08:35:57.255Z,96912.34
2022-11-09T08:46:01.848Z,96910.79
2022-11-09T08:56:09.389Z,96903.29
2022-11-09T09:06:13.271Z,96908.01
2022-11-09T09:16:17.537Z,96899.80
2022-11-09T09:26:21.510Z,96912.69
2022-11-09T09:36:25.511Z,96906.06
2022-11-09T09:46:44.204Z,96905.93
2022-11-09T09:56:51.236Z,96903.33
2022-11-09T10:07:13.568Z,96880.39
2022-11-09T10:17:40.621Z,96879.64
2022-11-09T10:27:51.037Z,96876.27
2022-11-09T10:37:55.423Z,96862.77
2022-11-09T10:47:59.606Z,96857.16
2022-11-09T10:58:45.636Z,96850.73
2022-11-09T11:09:08.127Z,96848.77
2022-11-09T11:19:37.616Z,96840.82
2022-11-09T11:30:16.448Z,96839.58
2022-11-09T11:40:55.726Z,96838.31
2022-11-09T11:52:19.108Z,96836.96
2022-11-09T12:03:16.509Z,96836.08
2022-11-09T12:13:49.520Z,96833.23
2022-11-09T12:24:37.411Z,96830.38
2022-11-09T12:35:25.279Z,96826.05
2022-11-09T12:45:48.946Z,96821.18
2022-11-09T12:56:26.136Z,96812.06
2022-11-09T13:07:08.431Z,96806.15
2022-11-09T13:17:31.540Z,96814.37
2022-11-09T13:27:53.877Z,96815.05
2022-11-09T13:38:16.836Z,96838.52
2022-11-09T13:48:45.740Z,96841.58
2022-11-09T13:59:28.648Z,96841.77
2022-11-09T14:10:14.315Z,96836.36
2022-11-09T14:20:58.112Z,96837.55
2022-11-09T14:31:29.932Z,96837.48
2022-11-09T14:41:52.821Z,96848.98
2022-11-09T14:52:29.059Z,96849.10
2022-11-09T15:02:51.412Z,96837.97
2022-11-09T15:13:14.617Z,96843.15
2022-11-09T15:23:40.975Z,96841.52
2022-11-09T15:34:22.943Z,96848.78
2022-11-09T15:44:46.110Z,96848.45
2022-11-09T15:55:13.230Z,96852.04
2022-11-09T16:05:36.047Z,96855.67
2022-11-09T16:16:07.891Z,96861.77
2022-11-09T16:26:33.051Z,96868.40
2022-11-09T16:36:57.132Z,96877.40
2022-11-09T16:47:22.054Z,96881.45
2022-11-09T16:57:47.227Z,96883.34
2022-11-09T17:08:11.843Z,96884.34
2022-11-09T17:18:35.239Z,96896.97
2022-11-09T17:28:57.898Z,96907.88
2022-11-09T17:39:21.939Z,96911.56
2022-11-09T17:49:46.258Z,96916.60
2022-11-09T18:00:12.038Z,96917.66
2022-11-09T18:10:40.120Z,96920.45
2022-11-09T18:21:10.860Z,96932.42
2022-11-09T18:31:35.181Z,96927.59
2022-11-09T18:42:01.269Z,96931.18
2022-11-09T18:52:25.282Z,96935.40
2022-11-09T19:02:48.512Z,96938.10
2022-11-09T19:13:12.540Z,96938.75
2022-11-09T19:23:35.736Z,96933.02
2022-11-09T19:34:00.676Z,96928.84
2022-11-09T19:44:24.826Z,96934.86
2022-11-09T19:54:48.836Z,96936.20
2022-11-09T20:05:12.060Z,96935.75
2022-11-09T20:15:35.791Z,96927.15
2022-11-09T20:26:13.125Z,96917.80
2022-11-09T20:36:39.889Z,96917.27
2022-11-09T20:47:07.131Z,96913.38
2022-11-09T20:57:30.863Z,96913.75
2022-11-09T21:07:54.766Z,96920.77
2022-11-09T21:18:17.856Z,96920.80
2022-11-09T21:29:16.080Z,96920.90
2022-11-09T21:39:40.742Z,96915.75
2022-11-09T21:50:07.024Z,96922.30
2022-11-09T22:00:33.618Z,96925.69
2022-11-09T22:11:11.629Z,96931.70
2022-11-09T22:21:34.134Z,96940.84
2022-11-09T22:31:56.655Z,96949.99
2022-11-09T22:42:20.050Z,96954.17
2022-11-09T22:52:42.147Z,96961.40
2022-11-09T23:03:05.034Z,96964.73
2022-11-09T23:13:27.581Z,96963.20
2022-11-09T23:23:51.101Z,96963.40
2022-11-09T23:34:13.323Z,96972.67
2022-11-09T23:44:36.539Z,96977.16
2022-11-09T23:54:59.489Z,96976.66
